Thursday, September 20, 2018, 4:20 PM EDT
Back to Local

KLEW, Auburn-lewiston

Location: Auburn, ME, United States Lat: 44.05
Local Time: 4:20 PM EDT (20:20 GMT) Lon: -70.283
Time Zone: US/Eastern Elev: 288 ft

Show me the last for .
Show Decoded

2018-09-20 15:56 METAR KLEW 201956Z AUTO 16007KT 10SM FEW025 BKN036 OVC049 16/12 A3027 RMK AO2
                 SLP265 T01560122 =
2018-09-20 15:48 METAR KLEW 201948Z AUTO 16006KT 10SM SCT023 BKN036 OVC049 16/12 A3027 RMK AO2 =
2018-09-20 14:56 METAR KLEW 201856Z AUTO 16006KT 10SM BKN027 16/12 A3026 RMK AO2 SLP263 T01610117
                 =
2018-09-20 13:56 METAR KLEW 201756Z AUTO 00000KT 10SM SCT027 OVC043 16/11 A3027 RMK AO2 SLP265
                 T01610106 10167 20133 56009 =
2018-09-20 13:15 METAR KLEW 201715Z AUTO 19004KT 10SM BKN023 OVC055 16/11 A3026 RMK AO2 =
2018-09-20 13:08 METAR KLEW 201708Z AUTO 00000KT 10SM SCT023 OVC055 16/11 A3027 RMK AO2 =
2018-09-20 12:56 METAR KLEW 201656Z AUTO VRB03KT 10SM BKN023 OVC055 16/11 A3027 RMK AO2 SLP266
                 T01610106 =
2018-09-20 12:54 METAR KLEW 201654Z AUTO 18004KT 10SM BKN023 OVC055 16/11 A3027 RMK AO2 =
2018-09-20 12:24 METAR KLEW 201624Z AUTO 00000KT 10SM FEW025 BKN047 OVC055 16/11 A3029 RMK AO2 =
2018-09-20 11:56 METAR KLEW 201556Z AUTO 00000KT 10SM FEW021 OVC028 15/11 A3030 RMK AO2 SLP275
                 T01500106 =
2018-09-20 10:56 METAR KLEW 201456Z AUTO 01003KT 10SM BKN017 OVC055 14/11 A3030 RMK AO2 SLP276
                 T01440111 51017 =
2018-09-20 09:56 METAR KLEW 201356Z AUTO 09005KT 10SM OVC019 14/11 A3029 RMK AO2 SLP272 T01390111
                 =
2018-09-20 09:45 METAR KLEW 201345Z AUTO 07004KT 10SM OVC017 14/11 A3029 RMK AO2 =
2018-09-20 09:10 METAR KLEW 201310Z AUTO 01005KT 10SM OVC013 13/11 A3029 RMK AO2 =
2018-09-20 08:56 METAR KLEW 201256Z AUTO 00000KT 10SM BKN015 OVC048 13/11 A3028 RMK AO2 SLP270
                 T01330111 =
2018-09-20 08:45 METAR KLEW 201245Z AUTO 05004KT 10SM SCT013 OVC048 13/11 A3028 RMK AO2 =
2018-09-20 08:13 METAR KLEW 201213Z AUTO VRB03KT 10SM BKN011 OVC050 13/11 A3025 RMK AO2 =
2018-09-20 07:56 METAR KLEW 201156Z AUTO 06003KT 10SM SCT011 OVC050 13/11 A3025 RMK AO2 SLP259
                 T01330111 10133 20122 53018 =
2018-09-20 06:56 METAR KLEW 201056Z AUTO 00000KT 10SM OVC050 13/11 A3022 RMK AO2 SLP249 T01280111
                 =
2018-09-20 05:56 METAR KLEW 200956Z AUTO 00000KT 10SM SCT032 OVC050 13/11 A3020 RMK AO2 SLP243
                 T01280111 =
2018-09-20 05:43 METAR KLEW 200943Z AUTO 00000KT 10SM SCT030 OVC050 13/11 A3020 RMK AO2 =
2018-09-20 05:13 METAR KLEW 200913Z AUTO 06005KT 10SM BKN026 OVC050 13/11 A3020 RMK AO2 =
2018-09-20 04:56 METAR KLEW 200856Z AUTO VRB05KT 10SM FEW019 OVC050 13/11 A3020 RMK AO2 SLP240
                 T01280111 51008 =
2018-09-20 04:47 METAR KLEW 200847Z AUTO 07004KT 10SM SCT019 OVC050 13/11 A3019 RMK AO2 =
2018-09-20 03:56 METAR KLEW 200756Z AUTO 03004KT 10SM FEW015 BKN022 OVC030 13/12 A3019 RMK AO2
                 SLP240 T01330117 =
2018-09-20 03:42 METAR KLEW 200742Z AUTO 05004KT 10SM SCT015 BKN020 OVC030 13/12 A3018 RMK AO2 =
2018-09-20 03:31 METAR KLEW 200731Z AUTO 05005KT 10SM SCT013 SCT020 OVC030 13/12 A3018 RMK AO2 =
2018-09-20 02:56 METAR KLEW 200656Z AUTO VRB03KT 10SM OVC028 13/12 A3018 RMK AO2 SLP234 T01330117
                 =
2018-09-20 02:41 METAR KLEW 200641Z AUTO 02004KT 10SM BKN026 OVC055 13/12 A3017 RMK AO2 =
2018-09-20 01:56 METAR KLEW 200556Z AUTO 02005KT 10SM OVC055 13/12 A3017 RMK AO2 SLP232 T01330117
                 10150 20133 53009 =
2018-09-20 00:56 METAR KLEW 200456Z AUTO 03006KT 10SM OVC055 13/12 A3016 RMK AO2 SLP228 T01330117
                 =
2018-09-19 23:56 METAR KLEW 200356Z AUTO 03007KT 10SM FEW016 OVC050 14/12 A3016 RMK AO2 SLP227
                 T01390117 401720122 =
2018-09-19 22:56 METAR KLEW 200256Z AUTO 03006KT 10SM FEW018 SCT025 OVC050 14/12 A3014 RMK AO2
                 SLP224 T01390117 51004 =
2018-09-19 22:54 METAR KLEW 200254Z AUTO 03006KT 10SM FEW018 SCT025 OVC050 14/12 A3014 RMK AO2 =
2018-09-19 22:39 METAR KLEW 200239Z AUTO 03007KT 10SM SCT018 BKN025 OVC050 14/12 A3014 RMK AO2 =
2018-09-19 21:56 METAR KLEW 200156Z AUTO 04007KT 10SM OVC046 14/12 A3014 RMK AO2 SLP222 T01440117
                 =
2018-09-19 20:56 METAR KLEW 200056Z AUTO 04004KT 10SM FEW019 OVC046 15/12 A3013 RMK AO2 SLP219
                 T01500117 =
2018-09-19 19:56 METAR KLEW 192356Z AUTO 06006KT 10SM OVC048 15/12 A3009 RMK AO2 SLP206 T01500117
                 10172 20150 51023 =
2018-09-19 18:56 METAR KLEW 192256Z AUTO 06007KT 10SM OVC050 16/12 A3007 RMK AO2 SLP199 T01560117
                 =
2018-09-19 17:56 METAR KLEW 192156Z AUTO 03007KT 10SM OVC050 16/11 A3006 RMK AO2 SLP195 T01610111
                 =
2018-09-19 17:05 METAR KLEW 192105Z AUTO 04009KT 10SM SCT027 BKN037 OVC048 17/12 A3003 RMK AO2 =
2018-09-19 16:56 METAR KLEW 192056Z AUTO 03010KT 10SM BKN027 OVC035 17/12 A3003 RMK AO2 SLP183
                 T01670117 53006 =

Support USWX by starting your Amazon purchase here.